Time;durP1;ratioP1;P1;durP2;ratioP2;P2;SDS_P1;SDS_P2;PMS_P1;PMS_P2;Temp;Humidity;BMP_temperature;BMP_pressure;BME280_temperature;BME280_humidity;BME280_pressure;Samples;Min_cycle;Max_cycle;Signal;HPM_P1;HPM_P2
2023/06/19 00:00:00;;;;;;;13.00;12.00;;;;;;;;;;5094186;28;20450;-58
2023/06/19 00:02:27;;;;;;;13.43;12.23;;;;;;;;;;5093831;28;20441;-58
2023/06/19 00:04:54;;;;;;;12.43;11.43;;;;;;;;;;5093999;28;20444;-57
2023/06/19 00:07:21;;;;;;;13.60;12.53;;;;;;;;;;5093931;28;20959;-57
2023/06/19 00:09:49;;;;;;;13.17;12.17;;;;;;;;;;5093516;28;20468;-58
2023/06/19 00:12:15;;;;;;;12.80;11.80;;;;;;;;;;5094026;28;20457;-58
2023/06/19 00:14:42;;;;;;;13.83;12.60;;;;;;;;;;5093891;28;20442;-58
2023/06/19 00:17:11;;;;;;;12.73;11.83;;;;;;;;;;5093808;28;20468;-58
2023/06/19 00:19:37;;;;;;;14.17;11.90;;;;;;;;;;5093738;28;20535;-57
2023/06/19 00:22:05;;;;;;;13.27;12.27;;;;;;;;;;5093672;28;20446;-57
2023/06/19 00:24:31;;;;;;;12.60;11.70;;;;;;;;;;5093814;28;20482;-57
2023/06/19 00:27:02;;;;;;;13.93;12.90;;;;;;;;;;5093375;28;20536;-57
2023/06/19 00:29:29;;;;;;;12.87;11.97;;;;;;;;;;5093791;28;20487;-57
2023/06/19 00:31:56;;;;;;;13.40;12.47;;;;;;;;;;5093654;28;20530;-57
2023/06/19 00:34:24;;;;;;;15.40;14.20;;;;;;;;;;5093963;28;20445;-57
2023/06/19 00:36:56;;;;;;;14.00;12.90;;;;;;;;;;5093386;28;20454;-57
2023/06/19 00:39:23;;;;;;;13.63;12.53;;;;;;;;;;5093532;28;20445;-57
2023/06/19 00:41:50;;;;;;;13.80;12.70;;;;;;;;;;5093350;28;20884;-58
2023/06/19 00:44:17;;;;;;;14.57;13.47;;;;;;;;;;5093323;28;20476;-57
2023/06/19 00:46:44;;;;;;;14.00;12.90;;;;;;;;;;5093180;28;20531;-57
2023/06/19 00:49:11;;;;;;;13.57;12.57;;;;;;;;;;5093060;28;20537;-58
2023/06/19 00:51:40;;;;;;;14.03;12.97;;;;;;;;;;5093487;28;20536;-57
2023/06/19 00:54:07;;;;;;;12.87;11.93;;;;;;;;;;5093324;28;20451;-57
2023/06/19 00:56:34;;;;;;;13.87;12.57;;;;;;;;;;5092939;28;20469;-57
2023/06/19 00:59:02;;;;;;;14.27;13.17;;;;;;;;;;5093220;28;20453;-57
2023/06/19 01:01:29;;;;;;;13.47;12.47;;;;;;;;;;5093073;28;20453;-57
2023/06/19 01:03:56;;;;;;;13.03;12.00;;;;;;;;;;5093012;28;20881;-57
2023/06/19 01:06:24;;;;;;;13.67;12.57;;;;;;;;;;5093113;28;20453;-57
2023/06/19 01:08:57;;;;;;;14.30;13.20;;;;;;;;;;5092818;28;21017;-57
2023/06/19 01:11:26;;;;;;;14.67;13.57;;;;;;;;;;5093104;28;20469;-57
2023/06/19 01:13:57;;;;;;;13.90;12.80;;;;;;;;;;5092405;28;20539;-57
2023/06/19 01:16:24;;;;;;;12.77;11.87;;;;;;;;;;5092802;28;20453;-57
2023/06/19 01:18:52;;;;;;;13.30;12.20;;;;;;;;;;5093123;28;20547;-57
2023/06/19 01:21:20;;;;;;;15.70;14.40;;;;;;;;;;5092857;28;20458;-57
2023/06/19 01:23:48;;;;;;;14.60;13.50;;;;;;;;;;5092960;28;20481;-57
2023/06/19 01:26:17;;;;;;;14.57;13.37;;;;;;;;;;5092893;28;20449;-57
2023/06/19 01:28:44;;;;;;;13.90;12.90;;;;;;;;;;5092656;28;20488;-58
2023/06/19 01:31:13;;;;;;;14.43;13.13;;;;;;;;;;5092708;28;20449;-57
2023/06/19 01:33:41;;;;;;;14.50;13.30;;;;;;;;;;5092874;28;20450;-58
2023/06/19 01:36:08;;;;;;;13.80;12.60;;;;;;;;;;5092810;28;20864;-57
2023/06/19 01:38:36;;;;;;;13.80;12.80;;;;;;;;;;5092805;28;20685;-57
2023/06/19 01:41:06;;;;;;;14.00;12.97;;;;;;;;;;5092670;28;20456;-57
2023/06/19 01:43:33;;;;;;;14.30;13.20;;;;;;;;;;5092611;28;20909;-57
2023/06/19 01:46:00;;;;;;;15.90;14.30;;;;;;;;;;5092895;28;20479;-57
2023/06/19 01:48:28;;;;;;;13.07;12.17;;;;;;;;;;5092720;28;20859;-57
2023/06/19 01:50:55;;;;;;;14.10;12.60;;;;;;;;;;5092678;28;20814;-57
2023/06/19 01:53:22;;;;;;;13.53;12.47;;;;;;;;;;5092591;28;20552;-57
2023/06/19 01:55:49;;;;;;;14.90;13.60;;;;;;;;;;5092375;28;20479;-58
2023/06/19 01:58:17;;;;;;;14.77;13.47;;;;;;;;;;5092832;28;20454;-57
2023/06/19 02:00:44;;;;;;;14.33;13.00;;;;;;;;;;5092649;28;20536;-58
2023/06/19 02:03:11;;;;;;;14.70;12.63;;;;;;;;;;5092675;28;20541;-57
2023/06/19 02:05:39;;;;;;;13.30;12.30;;;;;;;;;;5092446;28;20545;-57
2023/06/19 02:08:06;;;;;;;14.37;13.37;;;;;;;;;;5092312;28;20571;-57
2023/06/19 02:10:33;;;;;;;14.37;13.17;;;;;;;;;;5092514;28;20448;-57
2023/06/19 02:13:00;;;;;;;14.33;13.33;;;;;;;;;;5092593;28;20457;-58
2023/06/19 02:15:29;;;;;;;14.40;13.30;;;;;;;;;;5092372;28;20531;-58
2023/06/19 02:17:56;;;;;;;14.20;13.03;;;;;;;;;;5092373;28;20591;-57
2023/06/19 02:20:24;;;;;;;14.10;12.93;;;;;;;;;;5092307;28;20450;-57
2023/06/19 02:22:51;;;;;;;14.67;13.33;;;;;;;;;;5092271;28;20449;-57
2023/06/19 02:25:18;;;;;;;13.67;12.67;;;;;;;;;;5093545;28;20504;-57
2023/06/19 02:27:45;;;;;;;14.60;13.43;;;;;;;;;;5095984;28;20473;-58
2023/06/19 02:30:12;;;;;;;13.33;12.13;;;;;;;;;;5096100;28;20731;-58
2023/06/19 02:32:40;;;;;;;14.30;13.10;;;;;;;;;;5095887;28;20907;-57
2023/06/19 02:35:09;;;;;;;13.97;12.87;;;;;;;;;;5096022;28;20453;-57
2023/06/19 02:37:36;;;;;;;13.97;12.77;;;;;;;;;;5095648;28;20804;-58
2023/06/19 02:40:04;;;;;;;14.20;13.00;;;;;;;;;;5095910;28;20543;-57
2023/06/19 02:42:31;;;;;;;13.73;12.73;;;;;;;;;;5095604;28;20449;-57
2023/06/19 02:45:02;;;;;;;13.63;12.50;;;;;;;;;;5095584;28;20963;-57
2023/06/19 02:47:29;;;;;;;13.50;12.33;;;;;;;;;;5095639;28;20528;-57
2023/06/19 02:49:58;;;;;;;14.17;13.07;;;;;;;;;;5095458;28;20544;-59
2023/06/19 02:52:24;;;;;;;14.77;13.50;;;;;;;;;;5095419;28;20548;-57
2023/06/19 02:54:51;;;;;;;15.20;14.00;;;;;;;;;;5095351;28;20480;-58
2023/06/19 02:57:18;;;;;;;12.83;11.93;;;;;;;;;;5095441;28;20449;-57
2023/06/19 02:59:45;;;;;;;14.70;13.50;;;;;;;;;;5095375;28;20452;-57
2023/06/19 03:02:12;;;;;;;15.00;13.80;;;;;;;;;;5095314;28;20457;-58
2023/06/19 03:04:40;;;;;;;16.77;15.07;;;;;;;;;;5095213;28;20857;-58
2023/06/19 03:07:08;;;;;;;14.57;13.37;;;;;;;;;;5095047;28;20936;-58
2023/06/19 03:09:35;;;;;;;14.80;13.70;;;;;;;;;;5095476;28;20485;-57
2023/06/19 03:12:02;;;;;;;14.97;13.77;;;;;;;;;;5095198;28;20549;-58
2023/06/19 03:14:29;;;;;;;15.53;14.17;;;;;;;;;;5095076;28;20449;-57
2023/06/19 03:16:56;;;;;;;15.33;14.13;;;;;;;;;;5094895;28;20510;-57
2023/06/19 03:19:23;;;;;;;15.63;14.43;;;;;;;;;;5095229;28;20456;-57
2023/06/19 03:21:50;;;;;;;15.77;14.30;;;;;;;;;;5095242;28;20903;-58
2023/06/19 03:24:18;;;;;;;15.03;13.93;;;;;;;;;;5095112;28;20445;-58
2023/06/19 03:26:45;;;;;;;16.27;14.97;;;;;;;;;;5094965;28;20873;-58
2023/06/19 03:29:12;;;;;;;14.87;13.67;;;;;;;;;;5094828;28;20572;-58
2023/06/19 03:31:39;;;;;;;15.57;14.43;;;;;;;;;;5094652;28;20453;-58
2023/06/19 03:34:06;;;;;;;14.73;13.63;;;;;;;;;;5094587;28;20545;-58
2023/06/19 03:36:33;;;;;;;16.13;14.83;;;;;;;;;;5094175;28;20486;-58
2023/06/19 03:39:00;;;;;;;16.10;14.80;;;;;;;;;;5094518;28;20456;-58
2023/06/19 03:41:28;;;;;;;16.60;15.33;;;;;;;;;;5094614;28;20485;-58
2023/06/19 03:43:55;;;;;;;15.87;14.67;;;;;;;;;;5094520;28;20454;-58
2023/06/19 03:46:22;;;;;;;15.03;13.93;;;;;;;;;;5094310;28;20816;-58
2023/06/19 03:48:49;;;;;;;16.10;14.90;;;;;;;;;;5094503;28;20482;-58
2023/06/19 03:51:16;;;;;;;16.27;14.87;;;;;;;;;;5094458;28;20542;-58
2023/06/19 03:53:43;;;;;;;16.37;15.07;;;;;;;;;;5094287;28;20456;-58
2023/06/19 03:56:10;;;;;;;16.83;15.43;;;;;;;;;;5094171;28;20555;-57
2023/06/19 03:58:38;;;;;;;18.03;16.53;;;;;;;;;;5094199;28;20451;-57
2023/06/19 04:01:05;;;;;;;16.70;15.30;;;;;;;;;;5094072;28;20452;-57
2023/06/19 04:03:32;;;;;;;16.73;15.23;;;;;;;;;;5094195;28;20458;-59
2023/06/19 04:05:59;;;;;;;15.63;14.37;;;;;;;;;;5094111;28;20449;-57
2023/06/19 04:08:26;;;;;;;16.43;15.03;;;;;;;;;;5093918;28;20981;-58
2023/06/19 04:10:53;;;;;;;17.77;16.10;;;;;;;;;;5093945;28;20453;-59
2023/06/19 04:13:20;;;;;;;17.37;15.97;;;;;;;;;;5093741;28;20544;-57
2023/06/19 04:15:48;;;;;;;16.50;15.20;;;;;;;;;;5094062;28;20858;-57
2023/06/19 04:18:15;;;;;;;16.60;15.40;;;;;;;;;;5094036;28;20480;-57
2023/06/19 04:20:42;;;;;;;15.87;14.57;;;;;;;;;;5094158;28;20487;-57
2023/06/19 04:23:09;;;;;;;17.77;16.33;;;;;;;;;;5093910;28;20540;-58
2023/06/19 04:25:36;;;;;;;16.87;15.53;;;;;;;;;;5094208;28;20488;-57
2023/06/19 04:28:04;;;;;;;17.17;15.60;;;;;;;;;;5093481;28;20543;-57
2023/06/19 04:30:31;;;;;;;18.70;17.20;;;;;;;;;;5093808;28;20467;-57
2023/06/19 04:33:00;;;;;;;16.17;14.97;;;;;;;;;;5093681;28;20539;-57
2023/06/19 04:35:27;;;;;;;15.20;14.10;;;;;;;;;;5093671;28;20544;-58
2023/06/19 04:37:54;;;;;;;19.87;17.97;;;;;;;;;;5093440;28;20552;-58
2023/06/19 04:40:21;;;;;;;16.67;15.37;;;;;;;;;;5093415;28;20887;-59
2023/06/19 04:42:48;;;;;;;16.20;14.70;;;;;;;;;;5093280;28;20507;-58
2023/06/19 04:45:15;;;;;;;16.00;14.50;;;;;;;;;;5093454;28;20484;-58
2023/06/19 04:47:44;;;;;;;15.10;13.90;;;;;;;;;;5093357;28;20931;-58
2023/06/19 04:50:12;;;;;;;16.13;14.90;;;;;;;;;;5092716;28;20482;-58
2023/06/19 04:52:39;;;;;;;16.50;15.20;;;;;;;;;;5093313;28;20555;-58
2023/06/19 04:55:09;;;;;;;16.77;15.33;;;;;;;;;;5092961;28;20481;-58
2023/06/19 04:57:36;;;;;;;15.30;14.20;;;;;;;;;;5093250;28;20469;-58
2023/06/19 05:00:05;;;;;;;16.90;15.50;;;;;;;;;;5093244;28;20536;-58
2023/06/19 05:02:32;;;;;;;16.80;15.50;;;;;;;;;;5093123;28;20858;-58
2023/06/19 05:05:02;;;;;;;17.40;15.90;;;;;;;;;;5093073;28;20474;-59
2023/06/19 05:07:30;;;;;;;15.53;14.43;;;;;;;;;;5092962;28;20540;-58
2023/06/19 05:09:57;;;;;;;15.77;14.47;;;;;;;;;;5093070;28;20489;-57
2023/06/19 05:12:24;;;;;;;15.40;14.10;;;;;;;;;;5093019;28;20455;-58
2023/06/19 05:14:51;;;;;;;18.57;17.07;;;;;;;;;;5092804;28;20446;-58
2023/06/19 05:17:18;;;;;;;15.93;14.53;;;;;;;;;;5092821;28;20472;-57
2023/06/19 05:19:45;;;;;;;15.63;14.50;;;;;;;;;;5092887;28;20453;-57
2023/06/19 05:22:12;;;;;;;15.37;14.20;;;;;;;;;;5092752;28;20449;-57
2023/06/19 05:24:40;;;;;;;15.83;14.63;;;;;;;;;;5093098;28;20445;-57
2023/06/19 05:27:07;;;;;;;17.80;16.30;;;;;;;;;;5092826;28;20532;-57
2023/06/19 05:29:34;;;;;;;15.80;14.40;;;;;;;;;;5092752;28;20491;-57
2023/06/19 05:32:01;;;;;;;16.70;15.07;;;;;;;;;;5092676;28;20770;-57
2023/06/19 05:34:29;;;;;;;15.97;14.73;;;;;;;;;;5092843;28;20480;-57
2023/06/19 05:36:56;;;;;;;16.20;14.80;;;;;;;;;;5092408;28;20892;-58
2023/06/19 05:39:23;;;;;;;17.20;15.80;;;;;;;;;;5092822;28;20443;-57
2023/06/19 05:41:51;;;;;;;18.33;16.43;;;;;;;;;;5092572;28;20973;-58
2023/06/19 05:44:18;;;;;;;17.83;15.93;;;;;;;;;;5092569;28;20780;-57
2023/06/19 05:46:46;;;;;;;16.40;15.10;;;;;;;;;;5092426;28;20446;-57
2023/06/19 05:49:13;;;;;;;18.10;16.70;;;;;;;;;;5092264;28;20486;-58
2023/06/19 05:51:39;;;;;;;18.33;16.70;;;;;;;;;;5092719;28;20449;-57
2023/06/19 05:54:06;;;;;;;16.87;15.30;;;;;;;;;;5092541;28;20473;-58
2023/06/19 05:56:33;;;;;;;15.20;14.07;;;;;;;;;;5092266;28;20564;-59
2023/06/19 05:59:02;;;;;;;18.33;16.83;;;;;;;;;;5092462;28;20464;-58
2023/06/19 06:01:29;;;;;;;15.27;14.03;;;;;;;;;;5095725;28;20457;-58
2023/06/19 06:03:56;;;;;;;16.67;15.30;;;;;;;;;;5096241;28;20458;-58
2023/06/19 06:06:24;;;;;;;16.13;14.83;;;;;;;;;;5096455;28;20565;-57
2023/06/19 06:08:52;;;;;;;14.80;13.60;;;;;;;;;;5096535;28;20561;-57
2023/06/19 06:11:19;;;;;;;16.93;15.50;;;;;;;;;;5096100;28;20934;-59
2023/06/19 06:13:46;;;;;;;15.13;13.93;;;;;;;;;;5096220;28;20533;-58
2023/06/19 06:16:14;;;;;;;17.10;15.47;;;;;;;;;;5096087;28;20548;-59
2023/06/19 06:18:42;;;;;;;16.93;15.53;;;;;;;;;;5096207;28;20453;-58
2023/06/19 06:21:09;;;;;;;16.43;15.10;;;;;;;;;;5096226;28;20444;-59
2023/06/19 06:23:36;;;;;;;15.73;14.53;;;;;;;;;;5095989;28;20446;-58
2023/06/19 06:26:02;;;;;;;15.83;14.63;;;;;;;;;;5095926;28;20828;-58
2023/06/19 06:28:31;;;;;;;15.33;14.13;;;;;;;;;;5095682;28;20450;-58
2023/06/19 06:30:58;;;;;;;16.30;15.07;;;;;;;;;;5095474;28;20936;-59
2023/06/19 06:33:26;;;;;;;14.53;13.33;;;;;;;;;;5095876;28;20557;-59
2023/06/19 06:35:56;;;;;;;16.00;14.70;;;;;;;;;;5095690;28;20450;-59
2023/06/19 06:38:23;;;;;;;17.83;16.23;;;;;;;;;;5095515;28;20449;-59
2023/06/19 06:40:50;;;;;;;16.07;14.77;;;;;;;;;;5095456;28;20556;-58
2023/06/19 06:43:17;;;;;;;17.03;15.73;;;;;;;;;;5095423;28;20447;-60
2023/06/19 06:45:44;;;;;;;15.80;14.67;;;;;;;;;;5095435;28;20485;-58
2023/06/19 06:48:11;;;;;;;16.63;15.30;;;;;;;;;;5095128;28;21008;-59
2023/06/19 06:50:41;;;;;;;16.00;14.80;;;;;;;;;;5095312;28;20486;-59
2023/06/19 06:53:08;;;;;;;16.23;14.77;;;;;;;;;;5095251;28;20818;-60
2023/06/19 06:55:35;;;;;;;17.17;15.90;;;;;;;;;;5095115;28;20474;-58
2023/06/19 06:58:02;;;;;;;15.70;14.50;;;;;;;;;;5094753;28;20481;-59
2023/06/19 07:00:29;;;;;;;16.77;15.50;;;;;;;;;;5095082;28;20451;-61
2023/06/19 07:02:56;;;;;;;16.60;14.80;;;;;;;;;;5095293;28;20457;-60
2023/06/19 07:05:22;;;;;;;15.40;13.93;;;;;;;;;;5095243;28;20547;-60
2023/06/19 07:07:51;;;;;;;17.47;15.93;;;;;;;;;;5095141;28;20809;-61
2023/06/19 07:10:18;;;;;;;15.43;14.33;;;;;;;;;;5094989;28;20495;-61
2023/06/19 07:12:48;;;;;;;15.97;14.57;;;;;;;;;;5093937;28;20538;-62
2023/06/19 07:15:15;;;;;;;15.07;13.90;;;;;;;;;;5095238;28;20449;-62
2023/06/19 07:17:42;;;;;;;15.67;14.47;;;;;;;;;;5095109;28;20476;-59
2023/06/19 07:20:09;;;;;;;14.77;13.50;;;;;;;;;;5094898;28;20446;-59
2023/06/19 07:22:36;;;;;;;16.30;15.10;;;;;;;;;;5095302;28;20482;-59
2023/06/19 07:25:05;;;;;;;14.00;13.00;;;;;;;;;;5094764;28;20477;-59
2023/06/19 07:27:32;;;;;;;15.30;14.10;;;;;;;;;;5094800;28;20447;-59
2023/06/19 07:29:59;;;;;;;14.50;13.40;;;;;;;;;;5094724;28;20481;-59
2023/06/19 07:32:26;;;;;;;15.50;14.40;;;;;;;;;;5094881;28;20529;-60
2023/06/19 07:34:53;;;;;;;16.93;15.13;;;;;;;;;;5094589;28;20961;-57
2023/06/19 07:37:20;;;;;;;15.43;14.13;;;;;;;;;;5094671;28;20934;-58
2023/06/19 07:39:47;;;;;;;15.50;14.30;;;;;;;;;;5094811;28;21031;-58
2023/06/19 07:42:15;;;;;;;13.87;12.73;;;;;;;;;;5094586;28;20447;-60
2023/06/19 07:44:43;;;;;;;13.87;12.87;;;;;;;;;;5094415;28;20455;-60
2023/06/19 07:47:10;;;;;;;12.83;11.93;;;;;;;;;;5094391;28;20456;-56
2023/06/19 07:49:37;;;;;;;12.90;11.90;;;;;;;;;;5094375;28;20471;-58
2023/06/19 07:52:04;;;;;;;14.17;12.87;;;;;;;;;;5094131;28;20454;-58
2023/06/19 07:54:31;;;;;;;13.83;12.73;;;;;;;;;;5094496;28;20537;-57
2023/06/19 07:56:58;;;;;;;13.57;12.50;;;;;;;;;;5094011;28;20465;-57
2023/06/19 07:59:26;;;;;;;14.43;13.37;;;;;;;;;;5094254;28;20466;-58
2023/06/19 08:01:53;;;;;;;12.90;11.60;;;;;;;;;;5094193;28;20500;-58
2023/06/19 08:04:20;;;;;;;12.83;11.83;;;;;;;;;;5094099;28;20847;-56
2023/06/19 08:06:47;;;;;;;14.73;13.43;;;;;;;;;;5094056;28;20836;-58
2023/06/19 08:09:14;;;;;;;12.27;11.40;;;;;;;;;;5094150;28;20542;-59
2023/06/19 08:11:41;;;;;;;13.70;12.70;;;;;;;;;;5094167;28;20447;-59
2023/06/19 08:14:08;;;;;;;13.10;11.63;;;;;;;;;;5093976;28;20550;-59
2023/06/19 08:16:36;;;;;;;12.60;11.60;;;;;;;;;;5093824;28;20473;-59
2023/06/19 08:19:03;;;;;;;12.77;11.87;;;;;;;;;;5093761;28;20582;-59
2023/06/19 08:21:30;;;;;;;14.10;13.10;;;;;;;;;;5093658;28;20561;-59
2023/06/19 08:23:58;;;;;;;13.63;12.63;;;;;;;;;;5093600;28;20450;-58
2023/06/19 08:26:25;;;;;;;13.70;12.70;;;;;;;;;;5093703;28;20451;-60
2023/06/19 08:28:52;;;;;;;13.90;12.90;;;;;;;;;;5093814;28;20451;-60
2023/06/19 08:31:19;;;;;;;13.37;12.47;;;;;;;;;;5093465;28;20569;-60
2023/06/19 08:33:49;;;;;;;13.50;12.30;;;;;;;;;;5093504;28;20443;-59
2023/06/19 08:36:16;;;;;;;14.33;13.00;;;;;;;;;;5093759;28;20818;-59
2023/06/19 08:38:43;;;;;;;13.43;12.40;;;;;;;;;;5093883;28;20755;-59
2023/06/19 08:41:09;;;;;;;13.87;12.77;;;;;;;;;;5093585;28;20461;-59
2023/06/19 08:43:36;;;;;;;13.30;12.20;;;;;;;;;;5093567;28;20500;-58
2023/06/19 08:46:09;;;;;;;15.30;13.90;;;;;;;;;;5093346;28;20453;-59
2023/06/19 08:48:36;;;;;;;14.80;13.60;;;;;;;;;;5093269;28;20451;-57
2023/06/19 08:51:05;;;;;;;14.73;13.43;;;;;;;;;;5093335;28;20505;-56
2023/06/19 08:53:34;;;;;;;13.23;12.30;;;;;;;;;;5093360;28;20564;-59
2023/06/19 08:56:01;;;;;;;14.17;13.07;;;;;;;;;;5092879;28;20475;-57
2023/06/19 08:58:28;;;;;;;13.17;12.27;;;;;;;;;;5093207;28;20486;-61
2023/06/19 09:00:55;;;;;;;15.70;14.30;;;;;;;;;;5092965;28;20926;-59
2023/06/19 09:03:23;;;;;;;14.00;12.93;;;;;;;;;;5093279;28;20461;-60
2023/06/19 09:05:50;;;;;;;13.63;12.60;;;;;;;;;;5092904;28;20443;-60
2023/06/19 09:08:19;;;;;;;13.77;12.77;;;;;;;;;;5093078;28;20450;-59
2023/06/19 09:10:55;;;;;;;13.27;12.00;;;;;;;;;;5092754;28;20899;-59
2023/06/19 09:13:22;;;;;;;12.30;11.40;;;;;;;;;;5075377;28;21055;-60
2023/06/19 09:15:50;;;;;;;12.80;11.80;;;;;;;;;;5072868;28;20443;-60
2023/06/19 09:18:17;;;;;;;11.73;10.83;;;;;;;;;;5072751;28;20483;-60
2023/06/19 09:20:44;;;;;;;12.77;11.80;;;;;;;;;;5072665;28;20455;-60
2023/06/19 09:23:11;;;;;;;11.60;10.80;;;;;;;;;;5072691;28;20810;-58
2023/06/19 09:25:46;;;;;;;11.60;10.53;;;;;;;;;;5072731;28;20447;-58
2023/06/19 09:28:18;;;;;;;12.40;11.40;;;;;;;;;;5072907;28;20441;-58
2023/06/19 09:30:52;;;;;;;11.30;10.43;;;;;;;;;;5072709;28;20544;-55
2023/06/19 09:33:19;;;;;;;10.20;9.57;;;;;;;;;;5072793;28;20451;-59
2023/06/19 09:35:46;;;;;;;11.67;10.67;;;;;;;;;;5074427;28;20475;-59
2023/06/19 09:38:15;;;;;;;11.50;10.70;;;;;;;;;;5076514;28;20509;-59
2023/06/19 09:40:42;;;;;;;11.83;10.80;;;;;;;;;;5076537;28;20456;-59
2023/06/19 09:43:10;;;;;;;10.47;9.77;;;;;;;;;;5076687;28;20807;-55
2023/06/19 09:45:37;;;;;;;11.07;10.37;;;;;;;;;;5076677;28;20539;-54
2023/06/19 09:48:05;;;;;;;10.53;9.80;;;;;;;;;;5076362;28;20451;-58
2023/06/19 09:50:34;;;;;;;10.30;9.60;;;;;;;;;;5076344;28;20518;-58
2023/06/19 09:53:01;;;;;;;11.43;10.47;;;;;;;;;;5076254;28;20443;-58
2023/06/19 09:55:30;;;;;;;10.60;9.93;;;;;;;;;;5076248;28;20562;-59
2023/06/19 09:57:57;;;;;;;10.30;9.60;;;;;;;;;;5076345;28;20513;-59
2023/06/19 10:00:30;;;;;;;10.70;9.90;;;;;;;;;;5076297;28;20516;-60
2023/06/19 10:03:00;;;;;;;10.23;9.53;;;;;;;;;;5076181;28;20451;-59
2023/06/19 10:05:30;;;;;;;12.47;11.47;;;;;;;;;;5076021;28;20448;-60
2023/06/19 10:07:59;;;;;;;11.50;10.67;;;;;;;;;;5075965;28;20938;-57
2023/06/19 10:10:27;;;;;;;11.47;10.67;;;;;;;;;;5075759;28;20513;-54
2023/06/19 10:12:55;;;;;;;10.50;9.70;;;;;;;;;;5076346;28;20867;-56
2023/06/19 10:15:23;;;;;;;11.60;10.80;;;;;;;;;;5075714;28;20455;-56
2023/06/19 10:17:52;;;;;;;11.27;10.47;;;;;;;;;;5076366;28;20447;-55
2023/06/19 10:20:23;;;;;;;12.80;11.57;;;;;;;;;;5075661;28;20976;-57
2023/06/19 10:22:54;;;;;;;12.07;11.07;;;;;;;;;;5075932;28;20484;-57
2023/06/19 10:25:22;;;;;;;12.20;11.40;;;;;;;;;;5075623;28;20448;-60
2023/06/19 10:27:52;;;;;;;11.43;10.63;;;;;;;;;;5075675;28;20447;-59
2023/06/19 10:30:19;;;;;;;11.70;10.93;;;;;;;;;;5075769;28;20833;-58
2023/06/19 10:32:46;;;;;;;12.90;11.80;;;;;;;;;;5075483;28;20456;-59
2023/06/19 10:35:15;;;;;;;11.83;11.03;;;;;;;;;;5075677;28;20451;-59
2023/06/19 10:37:42;;;;;;;12.00;11.20;;;;;;;;;;5075438;28;20898;-59
2023/06/19 10:40:10;;;;;;;11.93;11.03;;;;;;;;;;5075305;28;20555;-58
2023/06/19 10:42:38;;;;;;;11.97;11.17;;;;;;;;;;5075454;28;20451;-59
2023/06/19 10:45:06;;;;;;;12.57;11.57;;;;;;;;;;5075287;28;20475;-61
2023/06/19 10:47:33;;;;;;;13.07;12.13;;;;;;;;;;5073750;28;20887;-59
2023/06/19 10:50:00;;;;;;;11.23;10.53;;;;;;;;;;5075268;28;20451;-60
2023/06/19 10:52:29;;;;;;;11.97;10.93;;;;;;;;;;5075024;28;20543;-59
2023/06/19 10:54:56;;;;;;;11.33;10.60;;;;;;;;;;5074809;28;20476;-58
2023/06/19 10:57:28;;;;;;;13.13;11.90;;;;;;;;;;5074891;28;20448;-60
2023/06/19 10:59:54;;;;;;;11.67;10.77;;;;;;;;;;5074873;28;20451;-61
2023/06/19 11:02:22;;;;;;;11.77;10.80;;;;;;;;;;5075122;28;20452;-60
2023/06/19 11:04:49;;;;;;;11.07;10.17;;;;;;;;;;5074953;28;20551;-60
2023/06/19 11:07:16;;;;;;;11.23;10.40;;;;;;;;;;5074912;28;20569;-60
2023/06/19 11:09:44;;;;;;;11.90;11.00;;;;;;;;;;5074837;28;20462;-60
2023/06/19 11:12:11;;;;;;;11.63;10.83;;;;;;;;;;5074733;28;20972;-59
2023/06/19 11:14:41;;;;;;;12.10;11.17;;;;;;;;;;5074775;28;20448;-60
2023/06/19 11:17:09;;;;;;;11.10;10.33;;;;;;;;;;5074793;28;20767;-61
2023/06/19 11:19:38;;;;;;;10.73;9.80;;;;;;;;;;5074835;28;20447;-60
2023/06/19 11:22:07;;;;;;;10.63;9.73;;;;;;;;;;5074616;28;20459;-61
2023/06/19 11:24:33;;;;;;;10.40;9.63;;;;;;;;;;5074573;28;20447;-61
2023/06/19 11:27:02;;;;;;;11.40;10.57;;;;;;;;;;5074363;28;20450;-60
2023/06/19 11:29:31;;;;;;;11.63;10.70;;;;;;;;;;5074604;28;20454;-60
2023/06/19 11:32:06;;;;;;;12.93;11.80;;;;;;;;;;5074477;28;20480;-60
2023/06/19 11:34:33;;;;;;;11.53;10.70;;;;;;;;;;5074411;28;20461;-60
2023/06/19 11:37:00;;;;;;;12.37;11.43;;;;;;;;;;5074375;28;20463;-61
2023/06/19 11:39:28;;;;;;;11.40;10.50;;;;;;;;;;5074150;28;20542;-61
2023/06/19 11:41:55;;;;;;;10.77;9.97;;;;;;;;;;5074286;28;20454;-61
2023/06/19 11:44:24;;;;;;;11.53;10.63;;;;;;;;;;5073991;28;20965;-61
2023/06/19 11:46:50;;;;;;;11.67;10.87;;;;;;;;;;5074146;28;20447;-61
2023/06/19 11:49:18;;;;;;;12.17;11.17;;;;;;;;;;5074097;28;20539;-58
2023/06/19 11:51:46;;;;;;;12.70;11.60;;;;;;;;;;5073942;28;20529;-57
2023/06/19 11:54:14;;;;;;;10.67;9.97;;;;;;;;;;5074078;28;20455;-59
2023/06/19 11:56:41;;;;;;;11.10;10.20;;;;;;;;;;5074100;28;20448;-59
2023/06/19 11:59:09;;;;;;;11.30;10.30;;;;;;;;;;5073599;28;20475;-58
2023/06/19 12:01:38;;;;;;;10.67;9.97;;;;;;;;;;5073855;28;20448;-57
2023/06/19 12:04:05;;;;;;;10.47;9.53;;;;;;;;;;5073616;28;20448;-58
2023/06/19 12:06:32;;;;;;;10.33;9.43;;;;;;;;;;5073265;28;20974;-57
2023/06/19 12:08:59;;;;;;;11.20;10.27;;;;;;;;;;5073719;28;20458;-60
2023/06/19 12:11:26;;;;;;;10.60;9.90;;;;;;;;;;5073541;28;20484;-58
2023/06/19 12:13:55;;;;;;;10.57;9.87;;;;;;;;;;5073606;28;20452;-53
2023/06/19 12:16:22;;;;;;;10.50;9.80;;;;;;;;;;5073370;28;20454;-59
2023/06/19 12:18:50;;;;;;;11.10;10.20;;;;;;;;;;5073392;28;20574;-58
2023/06/19 12:21:17;;;;;;;11.33;10.33;;;;;;;;;;5073578;28;20448;-58
2023/06/19 12:23:44;;;;;;;10.70;9.93;;;;;;;;;;5073450;28;20852;-57
2023/06/19 12:26:11;;;;;;;10.07;9.33;;;;;;;;;;5073237;28;20479;-57
2023/06/19 12:28:38;;;;;;;11.97;11.17;;;;;;;;;;5073309;28;20450;-57
2023/06/19 12:31:05;;;;;;;10.97;10.17;;;;;;;;;;5073283;28;20472;-57
2023/06/19 12:33:33;;;;;;;10.90;10.20;;;;;;;;;;5073106;28;20448;-58
2023/06/19 12:36:02;;;;;;;10.73;10.03;;;;;;;;;;5073384;28;20455;-58
2023/06/19 12:38:29;;;;;;;10.93;10.10;;;;;;;;;;5073346;28;20444;-58
2023/06/19 12:40:55;;;;;;;11.43;10.70;;;;;;;;;;5073142;28;20447;-57
2023/06/19 12:43:22;;;;;;;11.00;10.30;;;;;;;;;;5073160;28;20815;-58
2023/06/19 12:45:49;;;;;;;10.77;10.00;;;;;;;;;;5072948;28;20554;-58
2023/06/19 12:48:17;;;;;;;10.67;9.77;;;;;;;;;;5073057;28;20962;-57
2023/06/19 12:50:44;;;;;;;10.00;9.20;;;;;;;;;;5073048;28;20444;-57
2023/06/19 12:53:12;;;;;;;9.60;8.70;;;;;;;;;;5073031;28;20454;-57
2023/06/19 12:55:39;;;;;;;9.77;9.07;;;;;;;;;;5072870;28;20567;-57
2023/06/19 12:58:06;;;;;;;10.10;9.40;;;;;;;;;;5072855;28;20448;-58
2023/06/19 13:00:32;;;;;;;9.20;8.60;;;;;;;;;;5072818;28;20451;-57
2023/06/19 13:02:59;;;;;;;9.63;8.87;;;;;;;;;;5072930;28;20582;-57
2023/06/19 13:05:26;;;;;;;9.00;8.20;;;;;;;;;;5072967;28;20458;-58
2023/06/19 13:07:53;;;;;;;9.57;8.87;;;;;;;;;;5072913;28;20543;-57
2023/06/19 13:10:21;;;;;;;9.53;8.63;;;;;;;;;;5071857;28;20943;-58
2023/06/19 13:12:48;;;;;;;8.30;7.70;;;;;;;;;;5072743;28;20490;-58
2023/06/19 13:15:15;;;;;;;8.87;7.97;;;;;;;;;;5072623;28;20459;-58
2023/06/19 13:17:42;;;;;;;7.63;7.13;;;;;;;;;;5072794;28;20864;-58
2023/06/19 13:20:09;;;;;;;8.40;7.90;;;;;;;;;;5072807;28;20452;-58
2023/06/19 13:22:36;;;;;;;9.30;8.40;;;;;;;;;;5072816;28;20810;-58
2023/06/19 13:25:03;;;;;;;9.60;8.90;;;;;;;;;;5072758;28;20502;-58
2023/06/19 13:27:32;;;;;;;8.80;8.17;;;;;;;;;;5072399;28;20443;-58
2023/06/19 13:29:58;;;;;;;9.73;9.13;;;;;;;;;;5072512;28;20475;-58
2023/06/19 13:32:25;;;;;;;9.40;8.70;;;;;;;;;;5072526;28;20483;-57
2023/06/19 13:34:53;;;;;;;9.60;8.93;;;;;;;;;;5072497;28;20452;-57
2023/06/19 13:37:20;;;;;;;9.53;8.83;;;;;;;;;;5072421;28;20458;-58
2023/06/19 13:39:47;;;;;;;9.07;8.47;;;;;;;;;;5072457;28;20553;-58
2023/06/19 13:42:14;;;;;;;9.40;8.80;;;;;;;;;;5072369;28;20488;-58
2023/06/19 13:44:42;;;;;;;10.47;9.67;;;;;;;;;;5072602;28;20543;-58
2023/06/19 13:47:09;;;;;;;11.43;10.43;;;;;;;;;;5072345;28;20451;-58
2023/06/19 13:49:36;;;;;;;11.90;9.50;;;;;;;;;;5072496;28;20455;-58
2023/06/19 13:52:03;;;;;;;10.27;9.47;;;;;;;;;;5072162;28;20479;-58
2023/06/19 13:54:30;;;;;;;11.60;10.60;;;;;;;;;;5072309;28;20455;-58
2023/06/19 13:56:58;;;;;;;10.93;10.13;;;;;;;;;;5072324;28;20460;-58
2023/06/19 13:59:25;;;;;;;11.00;9.90;;;;;;;;;;5072485;28;20456;-59
2023/06/19 14:01:53;;;;;;;10.07;9.27;;;;;;;;;;5072421;28;20535;-58
2023/06/19 14:04:20;;;;;;;11.87;10.57;;;;;;;;;;5072413;28;20808;-58
2023/06/19 14:06:48;;;;;;;10.03;9.43;;;;;;;;;;5072228;28;20443;-59
2023/06/19 14:09:15;;;;;;;11.10;10.30;;;;;;;;;;5072081;28;20444;-58
2023/06/19 14:11:43;;;;;;;11.70;10.70;;;;;;;;;;5072358;28;20537;-58
2023/06/19 14:14:10;;;;;;;12.27;11.30;;;;;;;;;;5072243;28;20521;-58
2023/06/19 14:16:37;;;;;;;11.93;11.03;;;;;;;;;;5072279;28;20805;-58
2023/06/19 14:19:05;;;;;;;11.03;10.27;;;;;;;;;;5072146;28;20450;-58